Terminal Aerodrome Forecast
Issued by NWS Caribou, ME

Home | Current Version | Previous Version | Text Only | Print | Product List | Glossary On
Versions: 1 2 3 4 5 6 7 8 9 10 11 12 13 14 15 16 17 18
698
FTUS41 KCAR 281747
TAFCAR
TAF
KCAR 281747Z 2818/2918 07009KT P6SM BKN040
     FM290000 06005KT P6SM BKN250
     FM290900 02005KT 2SM BR SCT003
     FM291100 02005KT P6SM BKN015
     FM291300 03006KT P6SM SCT015 BKN070=

USA.gov is the U.S. government's official web portal to all federal, state and local government web resources and services.